createdAt,value
2022-11-01T00:03:14.447Z,11.00
2022-11-01T00:08:17.520Z,12.15
2022-11-01T00:13:21.708Z,11.60
2022-11-01T00:18:24.689Z,11.85
2022-11-01T00:23:27.475Z,11.77
2022-11-01T00:28:32.532Z,12.55
2022-11-01T00:33:35.391Z,12.20
2022-11-01T00:38:38.220Z,12.38
2022-11-01T00:43:42.412Z,12.80
2022-11-01T00:48:45.427Z,12.57
2022-11-01T00:53:48.307Z,12.45
2022-11-01T00:58:52.532Z,12.20
2022-11-01T01:03:55.362Z,12.05
2022-11-01T01:08:59.879Z,11.75
2022-11-01T01:14:04.096Z,12.27
2022-11-01T01:19:09.726Z,11.75
2022-11-01T01:24:12.520Z,11.30
2022-11-01T01:29:17.011Z,11.98
2022-11-01T01:34:20.299Z,12.10
2022-11-01T01:39:23.271Z,12.10
2022-11-01T01:44:50.496Z,12.68
2022-11-01T01:50:00.417Z,12.05
2022-11-01T01:55:07.748Z,12.80
2022-11-01T02:00:12.058Z,12.05
2022-11-01T02:05:23.199Z,11.52
2022-11-01T02:10:26.008Z,11.50
2022-11-01T02:15:34.807Z,11.65
2022-11-01T02:21:08.475Z,12.35
2022-11-01T02:26:32.735Z,11.80
2022-11-01T02:31:50.472Z,11.75
2022-11-01T02:37:01.364Z,11.05
2022-11-01T02:42:11.616Z,11.70
2022-11-01T02:47:15.916Z,12.00
2022-11-01T02:52:22.444Z,11.75
2022-11-01T02:57:31.796Z,10.30
2022-11-01T03:02:41.393Z,10.27
2022-11-01T03:07:48.427Z,11.40
2022-11-01T03:13:00.379Z,10.77
2022-11-01T03:18:11.710Z,11.10
2022-11-01T03:23:17.892Z,11.55
2022-11-01T03:28:24.090Z,12.27
2022-11-01T03:33:30.046Z,11.50
2022-11-01T03:38:37.491Z,11.88
2022-11-01T03:43:42.403Z,10.90
2022-11-01T03:48:46.676Z,12.10
2022-11-01T03:53:49.480Z,11.52
2022-11-01T03:58:52.291Z,11.07
2022-11-01T04:03:56.422Z,10.75
2022-11-01T04:08:59.215Z,11.18
2022-11-01T04:14:15.948Z,9.68
2022-11-01T04:19:37.594Z,9.73
2022-11-01T04:24:40.437Z,7.93
2022-11-01T04:29:43.243Z,7.78
2022-11-01T04:34:47.448Z,6.60
2022-11-01T04:39:50.291Z,6.30
2022-11-01T04:44:53.095Z,7.30
2022-11-01T04:49:57.268Z,7.20
2022-11-01T04:55:00.245Z,6.00
2022-11-01T05:00:03.109Z,6.25
2022-11-01T05:05:09.675Z,6.38
2022-11-01T05:10:13.000Z,5.78
2022-11-01T05:15:15.811Z,5.10
2022-11-01T05:20:20.180Z,5.95
2022-11-01T05:25:23.014Z,5.45
2022-11-01T05:30:25.783Z,4.95
2022-11-01T05:35:30.836Z,5.00
2022-11-01T05:40:34.259Z,5.03
2022-11-01T05:45:37.259Z,4.93
2022-11-01T05:50:41.408Z,5.00
2022-11-01T05:55:44.715Z,5.07
2022-11-01T06:00:47.479Z,4.22
2022-11-01T06:05:51.648Z,4.85
2022-11-01T06:10:54.907Z,4.43
2022-11-01T06:15:59.653Z,4.95
2022-11-01T06:21:03.848Z,5.13
2022-11-01T06:26:07.272Z,4.78
2022-11-01T06:31:10.183Z,4.22
2022-11-01T06:36:14.527Z,5.35
2022-11-01T06:41:17.640Z,4.82
2022-11-01T06:46:20.386Z,5.07
2022-11-01T06:51:24.531Z,4.22
2022-11-01T06:56:27.380Z,4.18
2022-11-01T07:01:30.333Z,4.90
2022-11-01T07:06:34.558Z,4.22
2022-11-01T07:11:38.426Z,3.65
2022-11-01T07:16:41.328Z,4.22
2022-11-01T07:21:45.489Z,3.67
2022-11-01T07:26:48.283Z,4.20
2022-11-01T07:31:51.048Z,3.80
2022-11-01T07:36:55.257Z,3.47
2022-11-01T07:41:59.399Z,4.05
2022-11-01T07:47:02.158Z,3.75
2022-11-01T07:52:06.331Z,3.20
2022-11-01T07:57:09.404Z,3.67
2022-11-01T08:02:12.345Z,2.97
2022-11-01T08:07:17.878Z,2.97
2022-11-01T08:12:20.628Z,3.15
2022-11-01T08:17:23.774Z,2.08
2022-11-01T08:22:27.971Z,3.22
2022-11-01T08:27:32.864Z,3.05
2022-11-01T08:32:37.279Z,2.58
2022-11-01T08:37:49.151Z,3.13
2022-11-01T08:42:52.638Z,3.10
2022-11-01T08:48:00.158Z,2.60
2022-11-01T08:53:07.337Z,1.98
2022-11-01T08:58:10.574Z,1.55
2022-11-01T09:03:13.458Z,1.85
2022-11-01T09:08:17.584Z,1.10
2022-11-01T09:13:20.438Z,0.93
2022-11-01T09:18:23.251Z,0.90
2022-11-01T09:23:27.655Z,0.30
2022-11-01T09:28:33.806Z,0.82
2022-11-01T09:33:38.042Z,0.60
2022-11-01T09:38:42.335Z,0.70
2022-11-01T09:43:47.161Z,0.75
2022-11-01T09:48:50.689Z,1.17
2022-11-01T09:53:57.508Z,0.75
2022-11-01T09:59:09.420Z,1.30
2022-11-01T10:04:41.538Z,0.80
2022-11-01T10:09:50.444Z,0.90
2022-11-01T10:15:10.876Z,1.23
2022-11-01T10:20:15.623Z,1.00
2022-11-01T10:25:23.456Z,1.65
2022-11-01T10:30:29.845Z,0.95
2022-11-01T10:35:36.345Z,0.98
2022-11-01T10:40:46.949Z,1.75
2022-11-01T10:45:55.288Z,1.23
2022-11-01T10:51:01.125Z,1.05
2022-11-01T10:56:10.067Z,1.58
2022-11-01T11:01:19.874Z,1.65
2022-11-01T11:06:22.820Z,1.50
2022-11-01T11:11:36.577Z,1.20
2022-11-01T11:16:44.538Z,1.17
2022-11-01T11:21:49.700Z,2.20
2022-11-01T11:26:56.671Z,1.58
2022-11-01T11:32:01.245Z,1.25
2022-11-01T11:37:06.433Z,1.85
2022-11-01T11:42:18.864Z,1.58
2022-11-01T11:52:37.733Z,1.85
2022-11-01T11:57:52.485Z,1.65
2022-11-01T12:02:55.498Z,1.55
2022-11-01T12:07:59.094Z,1.85
2022-11-01T12:13:05.899Z,1.70
2022-11-01T12:18:15.862Z,2.13
2022-11-01T12:23:33.364Z,1.90
2022-11-01T12:28:41.360Z,1.95
2022-11-01T12:33:49.385Z,2.00
2022-11-01T12:38:58.214Z,1.40
2022-11-01T12:58:01.441Z,1.63
2022-11-01T13:03:26.811Z,1.67
2022-11-01T13:08:37.184Z,1.30
2022-11-01T13:13:45.559Z,2.38
2022-11-01T13:18:56.480Z,1.80
2022-11-01T13:24:08.438Z,1.75
2022-11-01T13:29:14.708Z,2.38
2022-11-01T13:34:41.155Z,1.88
2022-11-01T13:39:59.402Z,2.05
2022-11-01T13:45:34.228Z,1.90
2022-11-01T13:50:51.232Z,2.03
2022-11-01T13:55:58.777Z,1.73
2022-11-01T14:01:28.857Z,1.70
2022-11-01T14:06:37.317Z,1.73
2022-11-01T14:11:48.261Z,1.67
2022-11-01T14:16:52.323Z,1.83
2022-11-01T14:21:55.030Z,1.30
2022-11-01T14:27:04.410Z,1.77
2022-11-01T14:32:11.727Z,1.80
2022-11-01T14:37:20.120Z,1.58
2022-11-01T14:42:27.468Z,1.20
2022-11-01T14:47:38.693Z,1.80
2022-11-01T14:52:46.163Z,1.63
2022-11-01T14:57:49.466Z,1.67
2022-11-01T15:02:53.785Z,1.55
2022-11-01T15:07:59.105Z,1.35
2022-11-01T15:13:03.138Z,1.50
2022-11-01T15:18:15.455Z,1.42
2022-11-01T15:23:21.176Z,1.65
2022-11-01T15:28:29.338Z,1.70
2022-11-01T15:33:34.775Z,1.42
2022-11-01T15:38:50.430Z,1.17
2022-11-01T15:43:54.186Z,1.27
2022-11-01T15:49:01.793Z,1.95
2022-11-01T15:54:08.037Z,1.65
2022-11-01T15:59:21.959Z,1.73
2022-11-01T16:04:27.948Z,1.35
2022-11-01T16:09:37.405Z,2.25
2022-11-01T16:14:40.663Z,1.40
2022-11-01T16:19:48.341Z,1.52
2022-11-01T16:24:51.191Z,1.92
2022-11-01T16:29:54.028Z,1.50
2022-11-01T16:35:00.132Z,1.90
2022-11-01T16:40:24.765Z,1.15
2022-11-01T16:45:27.573Z,2.83
2022-11-01T16:50:32.068Z,2.70
2022-11-01T16:55:37.248Z,1.88
2022-11-01T17:00:40.262Z,1.63
2022-11-01T17:05:52.516Z,1.65
2022-11-01T17:10:58.135Z,1.60
2022-11-01T17:16:00.940Z,1.67
2022-11-01T17:26:36.011Z,1.42
2022-11-01T17:31:38.688Z,1.17
2022-11-01T17:36:45.060Z,1.30
2022-11-01T17:41:49.133Z,1.20
2022-11-01T17:46:51.856Z,1.58
2022-11-01T17:51:55.263Z,1.30
2022-11-01T17:56:59.570Z,1.42
2022-11-01T18:02:02.409Z,1.17
2022-11-01T18:07:05.336Z,1.35
2022-11-01T18:12:15.713Z,1.10
2022-11-01T18:17:33.007Z,1.00
2022-11-01T18:22:43.770Z,1.70
2022-11-01T18:27:48.195Z,1.45
2022-11-01T18:32:57.614Z,0.70
2022-11-01T18:38:26.424Z,1.90
2022-11-01T18:43:33.395Z,1.00
2022-11-01T18:48:36.119Z,1.33
2022-11-01T18:53:39.263Z,1.13
2022-11-01T18:58:43.390Z,1.55
2022-11-01T19:03:46.722Z,1.77
2022-11-01T19:08:53.624Z,1.35
2022-11-01T19:13:59.299Z,1.10
2022-11-01T19:19:02.075Z,1.08
2022-11-01T19:24:27.478Z,1.10
2022-11-01T19:29:34.888Z,1.70
2022-11-01T19:34:42.079Z,1.60
2022-11-01T19:39:44.832Z,1.83
2022-11-01T19:44:49.004Z,1.40
2022-11-01T19:49:51.776Z,1.90
2022-11-01T19:54:54.569Z,1.58
2022-11-01T20:00:18.906Z,1.42
2022-11-01T20:05:27.367Z,1.17
2022-11-01T20:10:30.759Z,1.38
2022-11-01T20:15:34.891Z,1.77
2022-11-01T20:20:37.754Z,1.60
2022-11-01T20:25:41.203Z,2.38
2022-11-01T20:30:45.284Z,1.60
2022-11-01T20:35:48.906Z,1.40
2022-11-01T20:40:51.742Z,1.58
2022-11-01T20:45:55.826Z,1.80
2022-11-01T20:50:59.947Z,1.45
2022-11-01T20:56:02.700Z,1.98
2022-11-01T21:01:11.151Z,2.22
2022-11-01T21:06:15.134Z,1.50
2022-11-01T21:11:43.978Z,1.60
2022-11-01T21:16:49.092Z,1.73
2022-11-01T21:21:53.710Z,2.15
2022-11-01T21:27:08.448Z,2.08
2022-11-01T21:32:24.738Z,1.60
2022-11-01T21:37:30.674Z,1.75
2022-11-01T21:42:35.459Z,2.47
2022-11-01T21:47:45.467Z,2.08
2022-11-01T21:52:48.511Z,3.45
2022-11-01T22:02:55.164Z,1.60
2022-11-01T22:07:57.962Z,2.55
2022-11-01T22:13:06.461Z,1.98
2022-11-01T22:18:11.007Z,1.85
2022-11-01T22:23:13.764Z,2.20
2022-11-01T22:33:21.322Z,2.20
2022-11-01T22:38:24.515Z,2.35
2022-11-01T22:43:27.242Z,1.73
2022-11-01T22:53:34.471Z,1.80
2022-11-01T23:03:42.538Z,1.60
2022-11-01T23:08:45.354Z,2.00
2022-11-01T23:14:05.560Z,1.67
2022-11-01T23:19:13.161Z,1.60
2022-11-01T23:24:15.967Z,1.70
2022-11-01T23:29:19.286Z,2.17
2022-11-01T23:34:23.356Z,1.98
2022-11-01T23:39:32.965Z,1.40
2022-11-01T23:44:38.187Z,1.40
2022-11-01T23:49:43.707Z,1.90
2022-11-01T23:54:46.628Z,2.05
2022-11-01T23:59:51.891Z,1.80
